Time;durP1;ratioP1;P1;durP2;ratioP2;P2;SDS_P1;SDS_P2;PMS_P1;PMS_P2;Temp;Humidity;BMP_temperature;BMP_pressure;BME280_temperature;BME280_humidity;BME280_pressure;Samples;Min_cycle;Max_cycle;Signal;HPM_P1;HPM_P2
2023/06/12 00:00:55;;;;;;;2.30;1.30;;;18.60;92.90;;;;;;5068668;28;20409;-80
2023/06/12 00:03:25;;;;;;;2.10;1.25;;;18.60;92.90;;;;;;5067434;28;20565;-80
2023/06/12 00:05:52;;;;;;;4.95;1.38;;;18.60;93.00;;;;;;5066694;28;20048;-79
2023/06/12 00:08:19;;;;;;;1.88;1.08;;;18.60;92.90;;;;;;5066847;28;20048;-80
2023/06/12 00:10:47;;;;;;;3.83;1.08;;;18.50;93.00;;;;;;5067981;28;20055;-80
2023/06/12 00:13:13;;;;;;;3.50;1.50;;;18.50;93.00;;;;;;5069352;28;20469;-79
2023/06/12 00:15:39;;;;;;;4.47;1.58;;;18.50;93.10;;;;;;5065091;28;20140;-80
2023/06/12 00:18:05;;;;;;;3.05;1.25;;;18.40;93.20;;;;;;5068679;28;20119;-80
2023/06/12 00:20:32;;;;;;;0.93;0.75;;;17.90;93.20;;;;;;5067361;28;20513;-80
2023/06/12 00:22:58;;;;;;;2.60;1.45;;;18.30;93.40;;;;;;5068593;28;20060;-80
2023/06/12 00:25:29;;;;;;;4.40;1.27;;;18.30;93.50;;;;;;5068373;28;20407;-80
2023/06/12 00:27:55;;;;;;;1.85;1.13;;;18.30;93.60;;;;;;5066502;28;20049;-80
2023/06/12 00:30:20;;;;;;;5.47;1.45;;;18.20;93.80;;;;;;5068203;28;20171;-80
2023/06/12 00:32:46;;;;;;;5.43;1.50;;;18.10;94.00;;;;;;5066715;28;20086;-80
2023/06/12 00:35:12;;;;;;;2.22;1.17;;;18.10;94.10;;;;;;5066967;28;20048;-79
2023/06/12 00:37:42;;;;;;;3.35;1.27;;;18.10;94.20;;;;;;5065814;28;20414;-80
2023/06/12 00:40:10;;;;;;;2.55;1.27;;;18.00;94.30;;;;;;5067949;28;20049;-79
2023/06/12 00:42:41;;;;;;;7.05;1.48;;;18.00;94.60;;;;;;5066319;28;20052;-80
2023/06/12 00:45:09;;;;;;;4.07;1.50;;;17.90;94.60;;;;;;5067174;28;20044;-80
2023/06/12 00:47:36;;;;;;;3.97;1.23;;;17.90;94.70;;;;;;5067756;28;20558;-79
2023/06/12 00:50:02;;;;;;;1.55;1.00;;;17.90;94.90;;;;;;5067240;28;20045;-80
2023/06/12 00:52:34;;;;;;;2.78;1.20;;;17.80;95.00;;;;;;5068134;28;20219;-79
2023/06/12 00:55:01;;;;;;;8.13;1.60;;;17.80;95.20;;;;;;5065669;28;20408;-78
2023/06/12 00:57:27;;;;;;;3.08;1.42;;;17.80;95.30;;;;;;5067521;28;20105;-79
2023/06/12 00:59:53;;;;;;;4.40;1.48;;;17.70;95.40;;;;;;5067031;28;20048;-79
2023/06/12 01:02:21;;;;;;;2.35;0.98;;;17.70;95.50;;;;;;5067170;28;20033;-79
2023/06/12 01:04:49;;;;;;;3.60;1.58;;;17.70;95.70;;;;;;5066206;28;20448;-79
2023/06/12 01:07:48;;;;;;;8.38;1.20;;;17.60;95.90;;;;;;5048466;28;20055;-79
2023/06/12 01:10:20;;;;;;;1.77;1.20;;;17.60;96.20;;;;;;5067450;28;20040;-79
2023/06/12 01:12:47;;;;;;;3.47;1.45;;;17.50;96.10;;;;;;5064646;28;20045;-79
2023/06/12 01:15:14;;;;;;;3.72;1.45;;;17.50;96.30;;;;;;5066444;28;20079;-79
2023/06/12 01:17:41;;;;;;;5.32;1.48;;;17.50;96.50;;;;;;5065600;28;20398;-79
2023/06/12 01:20:11;;;;;;;2.42;1.58;;;17.40;96.70;;;;;;5066682;28;20450;-79
2023/06/12 01:23:00;;;;;;;2.63;1.45;;;17.40;96.90;;;;;;5067778;28;20625;-79
2023/06/12 01:25:56;;;;;;;2.13;1.20;;;16.70;97.40;;;;;;5056844;28;20060;-79
2023/06/12 01:28:37;;;;;;;3.33;1.35;;;17.30;97.60;;;;;;5066221;28;20049;-79
2023/06/12 01:31:36;;;;;;;3.83;1.35;;;17.20;97.60;;;;;;5065706;28;20044;-79
2023/06/12 01:34:15;;;;;;;3.28;1.20;;;17.10;97.90;;;;;;5065805;28;20090;-80
2023/06/12 01:36:48;;;;;;;3.63;1.27;;;17.10;98.00;;;;;;5048265;28;20048;-80
2023/06/12 01:39:16;;;;;;;3.47;1.40;;;17.00;98.30;;;;;;5066532;28;20489;-80
2023/06/12 01:41:43;;;;;;;2.63;1.23;;;16.90;98.50;;;;;;5065720;28;20053;-80
2023/06/12 01:44:10;;;;;;;2.78;1.58;;;16.80;98.80;;;;;;5065243;28;20048;-80
2023/06/12 01:46:36;;;;;;;4.90;1.45;;;16.80;99.10;;;;;;5065315;28;20036;-80
2023/06/12 01:49:04;;;;;;;3.55;1.65;;;16.70;99.40;;;;;;5067053;28;20068;-80
2023/06/12 01:51:30;;;;;;;5.82;1.80;;;16.70;99.70;;;;;;5064207;28;20509;-80
2023/06/12 01:53:56;;;;;;;2.28;1.75;;;16.60;99.90;;;;;;5047786;28;20080;-79
2023/06/12 01:56:25;;;;;;;2.65;1.38;;;16.60;99.90;;;;;;5047496;28;20114;-79
2023/06/12 01:58:52;;;;;;;1.95;1.70;;;16.50;99.90;;;;;;5064596;28;20525;-80
2023/06/12 02:01:18;;;;;;;4.10;1.52;;;16.50;99.90;;;;;;5066284;28;20512;-80
2023/06/12 02:03:48;;;;;;;4.28;1.63;;;16.40;99.90;;;;;;5065905;28;20060;-79
2023/06/12 02:06:17;;;;;;;3.25;1.73;;;16.30;99.90;;;;;;5065150;28;20048;-80
2023/06/12 02:08:44;;;;;;;4.97;1.48;;;16.30;99.90;;;;;;5065213;28;20522;-80
2023/06/12 02:11:10;;;;;;;4.75;1.50;;;16.20;99.90;;;;;;5065083;28;20132;-80
2023/06/12 02:13:36;;;;;;;2.88;1.60;;;16.10;99.90;;;;;;5064471;28;20087;-80
2023/06/12 02:16:07;;;;;;;3.60;1.60;;;16.10;99.90;;;;;;5064536;28;20489;-80
2023/06/12 02:18:33;;;;;;;4.50;1.70;;;16.00;99.90;;;;;;5066116;28;20044;-80
2023/06/12 02:20:59;;;;;;;6.25;1.90;;;16.00;99.90;;;;;;5065794;28;20626;-80
2023/06/12 02:23:24;;;;;;;4.90;1.70;;;16.00;99.90;;;;;;5066493;28;20447;-80
2023/06/12 02:25:50;;;;;;;6.78;1.60;;;16.00;99.90;;;;;;5065491;28;20059;-80
2023/06/12 02:28:16;;;;;;;3.35;1.65;;;15.90;99.90;;;;;;5064441;28;20048;-80
2023/06/12 02:30:41;;;;;;;3.42;1.58;;;15.90;99.90;;;;;;5065561;28;20142;-80
2023/06/12 02:33:09;;;;;;;2.67;1.70;;;16.00;99.90;;;;;;5065968;28;20078;-80
2023/06/12 02:35:39;;;;;;;5.22;1.60;;;15.90;99.90;;;;;;5063668;28;20131;-80
2023/06/12 02:38:04;;;;;;;7.85;1.83;;;15.90;99.90;;;;;;5080136;28;20084;-80
2023/06/12 02:40:30;;;;;;;6.13;2.53;;;15.90;99.90;;;;;;5066402;28;20053;-80
2023/06/12 02:42:56;;;;;;;3.90;1.90;;;15.90;99.90;;;;;;5063567;28;20388;-80
2023/06/12 02:45:23;;;;;;;9.18;1.67;;;15.90;99.90;;;;;;5065770;28;20051;-80
2023/06/12 02:47:49;;;;;;;5.68;1.73;;;15.90;99.90;;;;;;5065325;28;20370;-80
2023/06/12 02:50:16;;;;;;;4.07;1.55;;;15.90;99.90;;;;;;5064195;28;20051;-80
2023/06/12 02:52:41;;;;;;;2.00;1.55;;;15.80;99.90;;;;;;5064582;28;20088;-80
2023/06/12 02:55:07;;;;;;;4.50;1.73;;;15.80;99.90;;;;;;5064818;28;20099;-80
2023/06/12 02:57:34;;;;;;;4.43;1.90;;;15.80;99.90;;;;;;5064312;28;20056;-80
2023/06/12 03:00:00;;;;;;;4.20;2.03;;;15.80;99.90;;;;;;5064499;28;20044;-80
2023/06/12 03:02:26;;;;;;;2.60;1.50;;;15.70;99.90;;;;;;5063265;28;20048;-80
2023/06/12 03:04:55;;;;;;;5.20;1.73;;;15.70;99.90;;;;;;5064641;28;20052;-80
2023/06/12 03:07:21;;;;;;;4.03;2.00;;;15.70;99.90;;;;;;5064801;28;20128;-80
2023/06/12 03:09:47;;;;;;;9.30;2.33;;;15.60;99.90;;;;;;5063668;28;20060;-80
2023/06/12 03:12:13;;;;;;;4.13;1.85;;;15.60;99.90;;;;;;5064773;28;20048;-80
2023/06/12 03:14:39;;;;;;;7.40;1.60;;;15.60;99.90;;;;;;5063680;28;20122;-79
2023/06/12 03:17:05;;;;;;;5.60;2.38;;;15.60;99.90;;;;;;5065245;28;20123;-81
2023/06/12 03:19:31;;;;;;;5.65;2.03;;;15.60;99.90;;;;;;5064627;28;20041;-80
2023/06/12 03:21:58;;;;;;;5.78;2.30;;;15.60;99.90;;;;;;5046661;28;20101;-80
2023/06/12 03:24:29;;;;;;;4.80;1.80;;;15.60;99.90;;;;;;5065043;28;20803;-80
2023/06/12 03:26:55;;;;;;;4.18;1.92;;;15.60;99.90;;;;;;5063463;28;20040;-80
2023/06/12 03:29:20;;;;;;;3.28;1.88;;;15.60;99.90;;;;;;5065121;28;20040;-80
2023/06/12 03:31:46;;;;;;;4.32;2.35;;;15.60;99.90;;;;;;5064833;28;20382;-80
2023/06/12 03:34:15;;;;;;;2.92;1.73;;;15.60;99.90;;;;;;5063981;28;20060;-80
2023/06/12 03:36:40;;;;;;;5.78;2.33;;;15.60;99.90;;;;;;5065124;28;20056;-79
2023/06/12 03:39:09;;;;;;;4.15;2.00;;;15.60;99.90;;;;;;5064195;28;20122;-79
2023/06/12 03:41:35;;;;;;;3.83;1.83;;;15.60;99.90;;;;;;5064505;28;20457;-80
2023/06/12 03:44:01;;;;;;;3.65;2.45;;;15.60;99.90;;;;;;5046638;28;20052;-79
2023/06/12 03:46:30;;;;;;;6.05;2.05;;;15.60;99.90;;;;;;5063333;28;20045;-80
2023/06/12 03:48:56;;;;;;;6.28;2.13;;;15.70;99.90;;;;;;5065076;28;20041;-80
2023/06/12 03:51:23;;;;;;;3.97;2.30;;;15.70;99.90;;;;;;5064256;28;20492;-80
2023/06/12 03:53:49;;;;;;;10.20;2.25;;;15.70;99.90;;;;;;5063772;28;20562;-80
2023/06/12 03:56:14;;;;;;;7.63;2.13;;;15.70;99.90;;;;;;5063416;28;20135;-80
2023/06/12 03:58:40;;;;;;;4.22;2.08;;;15.70;99.90;;;;;;5063064;28;20049;-80
2023/06/12 04:01:06;;;;;;;10.02;2.35;;;15.80;99.90;;;;;;5066599;28;20032;-80
2023/06/12 04:03:34;;;;;;;4.40;1.90;;;15.80;99.90;;;;;;5050481;28;20499;-80
2023/06/12 04:06:00;;;;;;;7.10;2.50;;;15.90;99.90;;;;;;5068008;28;20062;-81
2023/06/12 04:08:25;;;;;;;6.22;2.25;;;15.90;99.90;;;;;;5066799;28;20044;-80
2023/06/12 04:10:51;;;;;;;4.85;2.08;;;15.90;99.90;;;;;;5066738;28;20374;-81
2023/06/12 04:13:17;;;;;;;5.30;2.22;;;15.90;99.90;;;;;;5067369;28;20046;-81
2023/06/12 04:15:42;;;;;;;3.92;1.88;;;15.90;99.90;;;;;;5068799;28;20047;-79
2023/06/12 04:18:09;;;;;;;3.92;2.22;;;15.90;99.90;;;;;;5066284;28;20498;-80
2023/06/12 04:20:38;;;;;;;7.07;2.22;;;16.00;99.90;;;;;;5066285;28;20124;-79
2023/06/12 04:23:04;;;;;;;4.18;2.67;;;16.00;99.90;;;;;;5067448;28;20131;-80
2023/06/12 04:25:31;;;;;;;6.57;2.35;;;16.00;99.90;;;;;;5067387;28;20091;-80
2023/06/12 04:27:57;;;;;;;4.10;2.40;;;16.10;99.90;;;;;;5066825;28;20404;-80
2023/06/12 04:30:23;;;;;;;9.68;2.00;;;14.60;99.90;;;;;;5065864;28;20124;-80
2023/06/12 04:32:48;;;;;;;5.07;2.10;;;16.10;99.90;;;;;;5067017;28;20048;-80
2023/06/12 04:35:19;;;;;;;10.27;2.83;;;16.10;99.90;;;;;;5067206;28;20053;-81
2023/06/12 04:37:48;;;;;;;5.32;1.88;;;15.60;99.90;;;;;;5082868;28;20090;-80
2023/06/12 04:40:15;;;;;;;6.55;2.00;;;16.20;99.90;;;;;;5049153;28;20098;-80
2023/06/12 04:42:43;;;;;;;5.72;2.30;;;16.20;99.90;;;;;;5048515;28;20088;-80
2023/06/12 04:45:12;;;;;;;6.18;2.42;;;16.30;99.90;;;;;;5067259;28;20512;-80
2023/06/12 04:47:44;;;;;;;5.57;2.80;;;17.40;99.90;;;;;;5066244;28;20040;-81
2023/06/12 04:50:12;;;;;;;4.65;2.35;;;16.30;99.90;;;;;;5065921;28;20537;-82
2023/06/12 04:52:39;;;;;;;2.42;1.92;;;16.40;99.90;;;;;;5064898;28;20041;-83
2023/06/12 04:55:08;;;;;;;6.38;2.80;;;16.40;99.90;;;;;;5065606;28;20119;-83
2023/06/12 04:57:36;;;;;;;5.93;2.60;;;16.50;99.90;;;;;;5064885;28;20052;-82
2023/06/12 05:00:06;;;;;;;7.13;2.58;;;16.50;99.90;;;;;;5066596;28;20048;-81
2023/06/12 05:02:33;;;;;;;6.85;2.78;;;16.60;99.90;;;;;;5066230;28;20044;-80
2023/06/12 05:05:00;;;;;;;7.65;3.00;;;16.60;99.90;;;;;;5066174;28;20045;-80
2023/06/12 05:07:27;;;;;;;4.43;2.33;;;16.60;99.90;;;;;;5066090;28;20390;-81
2023/06/12 05:09:53;;;;;;;3.10;2.08;;;16.70;99.90;;;;;;5066087;28;20489;-80
2023/06/12 05:12:19;;;;;;;4.03;2.95;;;16.70;99.90;;;;;;5064329;28;20041;-79
2023/06/12 05:14:45;;;;;;;6.95;2.58;;;16.80;99.90;;;;;;5066474;28;20049;-80
2023/06/12 05:17:10;;;;;;;4.65;2.60;;;16.80;99.90;;;;;;5064068;28;20680;-79
2023/06/12 05:19:38;;;;;;;3.33;2.10;;;16.80;99.90;;;;;;5066020;28;20091;-80
2023/06/12 05:22:05;;;;;;;7.70;2.92;;;16.80;99.90;;;;;;5065322;28;20090;-80
2023/06/12 05:24:30;;;;;;;5.72;3.05;;;16.80;99.90;;;;;;5065530;28;20495;-82
2023/06/12 05:26:56;;;;;;;9.10;2.47;;;16.90;99.90;;;;;;5064952;28;20070;-82
2023/06/12 05:29:23;;;;;;;9.32;4.25;;;16.90;99.90;;;;;;5064584;28;20123;-81
2023/06/12 05:31:49;;;;;;;5.57;3.75;;;16.90;99.90;;;;;;5065156;28;20052;-80
2023/06/12 05:34:15;;;;;;;5.03;3.35;;;17.00;99.90;;;;;;5065513;28;20508;-80
2023/06/12 05:36:41;;;;;;;10.93;2.85;;;17.10;99.90;;;;;;5064483;28;20040;-81
2023/06/12 05:39:07;;;;;;;7.88;3.20;;;17.20;99.90;;;;;;5063586;28;20120;-80
2023/06/12 05:41:32;;;;;;;7.22;2.85;;;17.30;99.90;;;;;;5064656;28;20048;-80
2023/06/12 05:43:58;;;;;;;5.10;2.92;;;17.40;99.90;;;;;;5063202;28;20131;-79
2023/06/12 05:46:24;;;;;;;7.30;3.40;;;17.50;99.90;;;;;;5064468;28;20052;-79
2023/06/12 05:48:51;;;;;;;7.80;2.95;;;17.50;99.90;;;;;;5063462;28;20075;-80
2023/06/12 05:51:17;;;;;;;4.72;2.60;;;17.70;99.90;;;;;;5064186;28;20049;-80
2023/06/12 05:53:47;;;;;;;5.45;2.70;;;17.80;99.90;;;;;;5064826;28;20633;-80
2023/06/12 05:56:13;;;;;;;6.22;2.60;;;17.90;99.90;;;;;;5064199;28;20566;-80
2023/06/12 05:58:42;;;;;;;9.77;2.42;;;18.00;99.90;;;;;;5065875;28;20076;-80
2023/06/12 06:01:10;;;;;;;7.63;3.00;;;18.10;99.90;;;;;;5064178;28;20052;-80
2023/06/12 06:03:36;;;;;;;4.63;2.88;;;18.20;99.90;;;;;;5066242;28;20048;-80
2023/06/12 06:06:03;;;;;;;5.38;3.00;;;18.30;99.90;;;;;;5063723;28;20032;-80
2023/06/12 06:08:29;;;;;;;6.22;2.70;;;18.40;99.90;;;;;;5064318;28;20072;-80
2023/06/12 06:10:54;;;;;;;7.07;2.80;;;18.50;99.90;;;;;;5063626;28;20044;-80
2023/06/12 06:13:20;;;;;;;7.60;3.00;;;18.60;99.90;;;;;;5064092;28;20054;-80
2023/06/12 06:15:48;;;;;;;5.70;3.00;;;18.70;99.90;;;;;;5063762;28;20052;-80
2023/06/12 06:18:13;;;;;;;7.97;4.13;;;18.80;99.90;;;;;;5063090;28;20405;-80
2023/06/12 06:20:39;;;;;;;7.20;3.80;;;18.80;99.90;;;;;;5064120;28;20037;-80
2023/06/12 06:23:05;;;;;;;4.28;3.00;;;18.90;99.90;;;;;;5064081;28;20559;-80
2023/06/12 06:25:31;;;;;;;6.63;2.88;;;17.60;99.90;;;;;;5063848;28;20043;-79
2023/06/12 06:27:57;;;;;;;7.00;3.03;;;19.20;99.90;;;;;;5062364;28;20053;-80
2023/06/12 06:30:23;;;;;;;6.63;2.55;;;19.20;99.90;;;;;;5064545;28;20055;-81
2023/06/12 06:32:50;;;;;;;4.25;3.05;;;19.40;99.90;;;;;;5064741;28;20052;-81
2023/06/12 06:35:16;;;;;;;12.63;2.88;;;19.30;99.90;;;;;;5064116;28;20056;-81
2023/06/12 06:37:41;;;;;;;6.95;3.00;;;19.60;99.90;;;;;;5065431;28;20047;-80
2023/06/12 06:40:09;;;;;;;8.02;3.00;;;19.70;99.90;;;;;;5064043;28;20721;-80
2023/06/12 06:42:34;;;;;;;5.88;2.70;;;19.70;99.90;;;;;;5065437;28;20032;-80
2023/06/12 06:45:00;;;;;;;7.97;3.70;;;19.80;99.90;;;;;;5063998;28;20505;-80
2023/06/12 06:47:27;;;;;;;4.50;3.38;;;19.90;99.90;;;;;;5063117;28;20084;-80
2023/06/12 06:49:53;;;;;;;6.32;3.05;;;20.00;99.90;;;;;;5045896;28;20047;-80
2023/06/12 06:52:22;;;;;;;5.30;2.63;;;20.10;99.90;;;;;;5062465;28;20561;-80
2023/06/12 06:54:47;;;;;;;4.47;3.20;;;20.20;99.90;;;;;;5063848;28;20056;-80
2023/06/12 06:57:14;;;;;;;12.48;3.10;;;20.40;99.90;;;;;;5062121;28;20140;-83
2023/06/12 06:59:40;;;;;;;7.18;2.75;;;20.50;99.90;;;;;;5063907;28;20044;-82
2023/06/12 07:02:06;;;;;;;7.57;3.72;;;20.60;99.90;;;;;;5063525;28;20509;-83
2023/06/12 07:04:32;;;;;;;7.00;3.53;;;20.80;99.90;;;;;;5064472;28;20094;-83
2023/06/12 07:06:58;;;;;;;5.88;3.47;;;20.90;99.90;;;;;;5063267;28;20040;-82
2023/06/12 07:09:24;;;;;;;7.28;3.60;;;21.00;99.90;;;;;;5046037;28;20049;-84
2023/06/12 07:11:51;;;;;;;7.05;3.00;;;21.10;99.90;;;;;;5064234;28;20049;-84
2023/06/12 07:14:17;;;;;;;10.35;3.03;;;21.20;99.90;;;;;;5063514;28;20055;-81
2023/06/12 07:16:43;;;;;;;5.63;2.95;;;21.30;99.90;;;;;;5063645;28;20045;-81
2023/06/12 07:19:09;;;;;;;29.95;21.95;;;21.40;99.90;;;;;;5062443;28;20087;-81
2023/06/12 07:21:36;;;;;;;6.25;3.50;;;21.50;99.90;;;;;;5065436;28;20083;-81
2023/06/12 07:24:03;;;;;;;6.25;3.03;;;21.60;99.90;;;;;;5064723;28;20040;-81
2023/06/12 07:26:29;;;;;;;5.05;2.95;;;21.70;99.90;;;;;;5064807;28;20127;-81
2023/06/12 07:28:56;;;;;;;4.60;2.83;;;21.70;99.90;;;;;;5063187;28;20128;-81
2023/06/12 07:31:21;;;;;;;4.88;3.30;;;21.80;99.90;;;;;;5063970;28;20044;-81
2023/06/12 07:33:47;;;;;;;7.50;3.25;;;21.90;99.90;;;;;;5064004;28;20421;-81
2023/06/12 07:36:14;;;;;;;10.13;3.13;;;21.90;99.90;;;;;;5065684;28;20045;-81
2023/06/12 07:38:41;;;;;;;4.93;2.78;;;22.00;99.90;;;;;;5068999;28;20465;-81
2023/06/12 07:41:07;;;;;;;5.20;3.03;;;22.20;99.90;;;;;;5066089;28;20057;-81
2023/06/12 07:43:34;;;;;;;6.05;3.08;;;21.20;99.90;;;;;;5049473;28;20044;-81
2023/06/12 07:46:07;;;;;;;7.50;2.95;;;22.40;99.90;;;;;;5068019;28;20055;-81
2023/06/12 07:48:33;;;;;;;4.13;2.47;;;22.50;99.90;;;;;;5066752;28;20051;-81
2023/06/12 07:50:59;;;;;;;6.95;2.65;;;22.50;99.90;;;;;;5066933;28;20040;-81
2023/06/12 07:53:25;;;;;;;4.55;3.22;;;22.60;99.90;;;;;;5067144;28;20483;-82
2023/06/12 07:55:50;;;;;;;7.07;2.63;;;22.70;99.90;;;;;;5067494;28;20086;-81
2023/06/12 07:58:17;;;;;;;9.18;3.40;;;22.80;99.90;;;;;;5066043;28;20088;-81
2023/06/12 08:00:46;;;;;;;6.82;3.05;;;22.90;99.90;;;;;;5066850;28;20041;-81
2023/06/12 08:03:15;;;;;;;5.25;2.47;;;22.90;99.90;;;;;;5067494;28;20128;-82
2023/06/12 08:05:41;;;;;;;4.53;2.30;;;22.90;99.90;;;;;;5068638;28;20344;-81
2023/06/12 08:08:10;;;;;;;7.20;3.15;;;23.00;99.90;;;;;;5065412;28;20359;-81
2023/06/12 08:10:35;;;;;;;4.07;2.70;;;23.00;99.90;;;;;;5065818;28;20044;-81
2023/06/12 08:13:01;;;;;;;6.00;3.03;;;23.10;99.90;;;;;;5067907;28;20049;-82
2023/06/12 08:15:27;;;;;;;9.25;2.90;;;23.10;99.90;;;;;;5065298;28;20056;-81
2023/06/12 08:17:53;;;;;;;6.03;2.90;;;23.20;99.90;;;;;;5050384;28;20102;-81
2023/06/12 08:20:19;;;;;;;4.88;3.08;;;23.30;99.90;;;;;;5065271;28;20128;-81
2023/06/12 08:22:45;;;;;;;6.07;2.80;;;23.40;99.90;;;;;;5066734;28;20569;-81
2023/06/12 08:25:10;;;;;;;6.60;2.95;;;23.80;99.90;;;;;;5066072;28;20059;-81
2023/06/12 08:27:36;;;;;;;5.90;2.83;;;23.60;99.80;;;;;;5066401;28;20129;-81
2023/06/12 08:30:03;;;;;;;5.82;3.22;;;23.70;99.60;;;;;;5067496;28;20485;-81
2023/06/12 08:32:28;;;;;;;4.15;2.65;;;23.90;99.30;;;;;;5065745;28;20477;-81
2023/06/12 08:34:54;;;;;;;5.35;2.45;;;24.00;99.20;;;;;;5065970;28;20141;-81
2023/06/12 08:37:23;;;;;;;3.15;2.33;;;24.10;99.00;;;;;;5048403;28;20155;-81
2023/06/12 08:39:49;;;;;;;5.70;2.60;;;24.20;98.90;;;;;;5067060;28;20051;-81
2023/06/12 08:42:16;;;;;;;3.28;2.53;;;24.30;98.60;;;;;;5048269;28;20045;-82
2023/06/12 08:44:46;;;;;;;4.47;2.88;;;24.40;98.30;;;;;;5068491;28;20540;-82
2023/06/12 08:47:15;;;;;;;8.30;3.08;;;24.50;97.90;;;;;;5064854;28;20134;-81
2023/06/12 08:49:42;;;;;;;6.45;3.95;;;24.60;97.80;;;;;;5066080;28;20520;-81
2023/06/12 08:52:10;;;;;;;4.80;2.80;;;24.60;97.40;;;;;;5065610;28;20041;-82
2023/06/12 08:54:45;;;;;;;10.50;2.80;;;24.70;97.70;;;;;;5065205;28;20297;-82
2023/06/12 08:57:13;;;;;;;4.57;2.50;;;24.70;97.30;;;;;;5065850;28;20110;-81
2023/06/12 09:00:04;;;;;;;9.10;2.67;;;24.80;97.20;;;;;;5064416;28;20052;-82
2023/06/12 09:02:31;;;;;;;3.72;2.50;;;25.00;97.40;;;;;;5067201;28;20119;-81
2023/06/12 09:05:02;;;;;;;4.38;2.53;;;25.00;96.70;;;;;;5062239;28;20041;-81
2023/06/12 09:07:30;;;;;;;3.63;2.90;;;25.10;96.20;;;;;;5065371;28;20059;-82
2023/06/12 09:09:56;;;;;;;10.80;3.05;;;25.30;95.80;;;;;;5065191;28;20422;-81
2023/06/12 09:12:22;;;;;;;4.00;2.75;;;25.30;95.00;;;;;;5046037;28;20120;-82
2023/06/12 09:14:51;;;;;;;4.63;2.83;;;25.30;94.60;;;;;;5066928;28;20079;-82
2023/06/12 09:17:18;;;;;;;5.15;2.38;;;25.30;94.40;;;;;;5065360;28;20046;-82
2023/06/12 09:19:45;;;;;;;6.75;3.42;;;25.40;94.10;;;;;;5065514;28;20088;-81
2023/06/12 09:22:12;;;;;;;4.95;2.60;;;25.50;93.80;;;;;;5064938;28;20489;-81
2023/06/12 09:24:38;;;;;;;5.65;2.65;;;25.60;94.00;;;;;;5067037;28;20032;-81
2023/06/12 09:27:04;;;;;;;5.93;3.50;;;25.70;93.30;;;;;;5080695;28;20084;-82
2023/06/12 09:29:31;;;;;;;3.55;2.55;;;25.70;92.90;;;;;;5047854;28;20135;-81
2023/06/12 09:32:14;;;;;;;5.72;2.83;;;25.80;92.80;;;;;;5065396;28;20056;-81
2023/06/12 09:34:48;;;;;;;4.10;2.90;;;25.80;92.70;;;;;;5064981;28;20044;-81
2023/06/12 09:37:15;;;;;;;4.20;2.63;;;25.90;92.90;;;;;;5066956;28;20063;-81
2023/06/12 09:39:41;;;;;;;5.30;3.20;;;26.00;92.90;;;;;;5063993;28;20048;-81
2023/06/12 09:42:07;;;;;;;10.57;6.95;;;26.10;92.60;;;;;;5064848;28;20045;-81
2023/06/12 09:44:33;;;;;;;6.00;3.95;;;26.20;92.30;;;;;;5048023;28;20048;-81
2023/06/12 09:47:04;;;;;;;5.00;2.65;;;26.20;92.10;;;;;;5064139;28;20123;-81
2023/06/12 09:49:31;;;;;;;6.15;2.80;;;26.40;92.10;;;;;;5048953;28;20041;-81
2023/06/12 09:52:04;;;;;;;3.97;2.83;;;26.50;91.90;;;;;;5063773;28;20048;-81
2023/06/12 09:54:31;;;;;;;6.00;2.67;;;26.60;91.90;;;;;;5065022;28;20564;-82
2023/06/12 09:56:58;;;;;;;6.95;3.22;;;26.60;91.70;;;;;;5047009;28;20045;-81
2023/06/12 09:59:27;;;;;;;5.47;3.33;;;26.70;91.80;;;;;;5063168;28;20044;-81
2023/06/12 10:02:00;;;;;;;5.75;2.88;;;26.90;91.60;;;;;;5064328;28;20071;-81
2023/06/12 10:04:47;;;;;;;4.25;2.88;;;26.90;91.00;;;;;;5063644;28;20489;-80
2023/06/12 10:07:22;;;;;;;5.18;3.08;;;27.00;90.80;;;;;;5065097;28;20086;-80
2023/06/12 10:09:49;;;;;;;7.03;3.40;;;27.10;90.60;;;;;;5063016;28;20060;-81
2023/06/12 10:12:17;;;;;;;5.95;3.33;;;27.20;90.40;;;;;;5031187;28;20396;-81
2023/06/12 10:14:43;;;;;;;5.35;3.08;;;27.10;90.30;;;;;;5064066;28;20044;-80
2023/06/12 10:17:10;;;;;;;5.72;2.92;;;27.10;90.40;;;;;;5065961;28;20115;-80
2023/06/12 10:19:47;;;;;;;3.45;2.72;;;27.20;90.30;;;;;;5065967;28;20101;-79
2023/06/12 10:22:13;;;;;;;8.18;2.92;;;27.40;89.90;;;;;;5064601;28;20127;-80
2023/06/12 10:24:39;;;;;;;12.85;2.80;;;27.50;88.50;;;;;;5065816;28;20402;-81
2023/06/12 10:27:06;;;;;;;4.00;2.78;;;27.50;87.30;;;;;;5063706;28;20040;-80
2023/06/12 10:29:36;;;;;;;3.92;2.70;;;27.60;87.10;;;;;;5047323;28;20527;-82
2023/06/12 10:32:07;;;;;;;3.58;2.55;;;27.70;86.40;;;;;;5046780;28;20041;-80
2023/06/12 10:34:50;;;;;;;5.50;3.00;;;27.80;85.40;;;;;;5061504;28;20036;-80
2023/06/12 10:37:30;;;;;;;3.92;2.83;;;27.90;84.40;;;;;;5060785;28;20173;-80
2023/06/12 10:40:11;;;;;;;2.88;2.35;;;28.00;84.20;;;;;;5060148;28;20052;-80
2023/06/12 10:42:48;;;;;;;4.40;2.90;;;28.10;82.90;;;;;;5063508;28;20135;-80
2023/06/12 10:45:29;;;;;;;6.13;3.25;;;28.20;82.60;;;;;;5063683;28;20441;-79
2023/06/12 10:48:06;;;;;;;6.22;2.70;;;28.30;80.50;;;;;;5062865;28;20058;-80
2023/06/12 10:50:33;;;;;;;4.32;2.63;;;28.40;80.50;;;;;;5047850;28;20389;-80
2023/06/12 10:53:04;;;;;;;4.88;2.80;;;28.60;80.60;;;;;;5064062;28;20083;-80
2023/06/12 10:55:34;;;;;;;4.70;2.70;;;28.70;80.30;;;;;;5065318;28;20048;-80
2023/06/12 10:58:05;;;;;;;5.28;2.88;;;28.80;79.10;;;;;;5064104;28;20084;-82
2023/06/12 11:00:37;;;;;;;5.18;3.03;;;28.80;78.50;;;;;;5062933;28;20562;-82
2023/06/12 11:03:07;;;;;;;;;;;28.90;77.20;;;;;;5064670;28;20098;-80
2023/06/12 11:05:34;;;;;;;4.95;3.30;;;28.90;77.50;;;;;;5078730;28;19938;-80
2023/06/12 11:08:02;;;;;;;7.28;3.70;;;29.00;78.10;;;;;;5064074;28;20053;-80
2023/06/12 11:10:29;;;;;;;4.15;2.83;;;29.10;77.10;;;;;;5061409;28;20047;-80
2023/06/12 11:12:56;;;;;;;4.82;2.92;;;29.10;77.20;;;;;;5063714;28;20048;-79
2023/06/12 11:15:23;;;;;;;4.00;2.50;;;29.20;76.50;;;;;;5062039;28;20114;-80
2023/06/12 11:17:52;;;;;;;4.22;2.88;;;29.30;77.20;;;;;;5064080;28;20041;-79
2023/06/12 11:20:20;;;;;;;4.03;2.97;;;29.40;75.60;;;;;;5080377;28;20472;-80
2023/06/12 11:22:47;;;;;;;3.97;2.95;;;29.60;75.10;;;;;;5063638;28;20049;-80
2023/06/12 11:25:13;;;;;;;6.43;3.70;;;29.60;73.40;;;;;;5080630;28;20048;-80
2023/06/12 11:27:39;;;;;;;4.20;2.63;;;29.70;72.20;;;;;;5061636;28;20183;-80
2023/06/12 11:30:13;;;;;;;3.97;3.13;;;29.60;72.00;;;;;;5063326;28;20127;-80
2023/06/12 11:32:40;;;;;;;4.55;3.42;;;29.60;72.00;;;;;;5062667;28;20115;-81
2023/06/12 11:35:09;;;;;;;3.85;2.88;;;29.70;72.40;;;;;;5064162;28;20869;-80
2023/06/12 11:37:39;;;;;;;3.88;3.08;;;29.70;71.70;;;;;;5063568;28;20448;-80
2023/06/12 11:40:11;;;;;;;8.60;3.20;;;29.80;69.30;;;;;;5063820;28;20059;-81
2023/06/12 11:42:42;;;;;;;3.42;3.10;;;30.00;68.70;;;;;;5063760;28;20049;-81
2023/06/12 11:45:13;;;;;;;3.87;2.83;;;30.20;68.50;;;;;;5061884;28;20040;-81
2023/06/12 11:47:41;;;;;;;6.50;3.20;;;30.30;68.50;;;;;;5064949;28;20593;-80
2023/06/12 11:50:18;;;;;;;5.18;2.63;;;30.40;68.20;;;;;;5062634;28;20040;-80
2023/06/12 11:52:45;;;;;;;5.45;4.05;;;30.50;67.90;;;;;;5045737;28;20088;-82
2023/06/12 11:55:14;;;;;;;7.47;3.60;;;30.60;67.40;;;;;;5063630;28;20048;-79
2023/06/12 11:57:47;;;;;;;3.95;3.17;;;30.70;67.90;;;;;;5062914;28;20064;-81
2023/06/12 12:00:16;;;;;;;9.80;3.13;;;30.80;66.00;;;;;;5063721;28;20048;-81
2023/06/12 12:02:49;;;;;;;4.93;3.00;;;30.90;66.30;;;;;;5045485;28;20396;-81
2023/06/12 12:05:22;;;;;;;3.00;2.75;;;30.90;66.10;;;;;;5080086;28;20121;-82
2023/06/12 12:07:59;;;;;;;4.55;3.25;;;30.90;65.60;;;;;;5029934;28;20436;-81
2023/06/12 12:10:27;;;;;;;3.97;2.80;;;31.00;64.90;;;;;;5061353;28;20411;-80
2023/06/12 12:13:00;;;;;;;7.40;3.45;;;31.10;64.30;;;;;;5063778;28;20044;-80
2023/06/12 12:15:29;;;;;;;3.30;2.65;;;31.30;63.80;;;;;;5061159;28;20070;-80
2023/06/12 12:17:55;;;;;;;4.25;2.65;;;31.30;63.80;;;;;;5064138;28;20400;-81
2023/06/12 12:20:26;;;;;;;4.35;3.45;;;31.30;63.80;;;;;;5062352;28;20052;-81
2023/06/12 12:22:53;;;;;;;2.78;2.47;;;31.30;62.00;;;;;;5065718;28;20071;-80
2023/06/12 12:25:27;;;;;;;3.55;2.90;;;31.30;63.10;;;;;;5069024;28;20056;-80
2023/06/12 12:27:54;;;;;;;3.72;3.00;;;31.30;61.50;;;;;;5064445;28;20102;-81
2023/06/12 12:30:21;;;;;;;3.45;2.85;;;31.30;61.20;;;;;;5050397;28;20048;-80
2023/06/12 12:32:52;;;;;;;5.10;3.08;;;31.30;60.80;;;;;;5066700;28;20040;-80
2023/06/12 12:35:19;;;;;;;4.30;3.10;;;31.30;59.00;;;;;;5066047;28;20574;-81
2023/06/12 12:37:46;;;;;;;3.97;3.58;;;31.30;59.90;;;;;;5066924;28;20048;-81
2023/06/12 12:40:13;;;;;;;9.23;3.67;;;31.40;59.60;;;;;;5064443;28;20049;-80
2023/06/12 12:42:44;;;;;;;4.22;3.47;;;31.40;59.10;;;;;;5049785;28;20915;-80
2023/06/12 12:45:11;;;;;;;4.35;3.72;;;31.50;58.80;;;;;;5047721;28;20100;-80
2023/06/12 12:47:44;;;;;;;3.22;2.92;;;31.50;58.40;;;;;;5066922;28;20425;-81
2023/06/12 12:50:10;;;;;;;3.88;3.00;;;31.50;58.40;;;;;;5047681;28;20041;-84